Flight Track Log - Related Links

Times and Time Zones

All times are in EDT time to prevent confusion due to time zone crossing. See the TRS445 flight status page for this flight to view local times or setup timezone preferences in your user account.

Time Position Orientation Groundspeed Altitude Reporting Facility
EDT Latitude Longitude Course Direction KTS MPH feet Rate Location/Type
Sat 11:53:12 AM 35.3725 -97.5889 167° South 153 176 2,200  Level Fort Worth Center
Sat 11:53:54 AM 35.3408 -97.5797 167° South 172 198 3,400 1,223 Climbing Fort Worth Center
Sat 11:54:55 AM 35.3294 -97.4908 99° East 296 341 4,300 1,584 Climbing Fort Worth Center
Sat 11:55:59 AM 35.3261 -97.3803 92° East 304 350 6,700 2,048 Climbing Fort Worth Center
Sat 11:57:01 AM 35.3244 -97.2753 91° East 307 353 8,600 1,790 Climbing Fort Worth Center
Sat 11:58:03 AM 35.3247 -97.1717 90° East 321 369 10,400 1,500 Climbing Fort Worth Center
Sat 11:59:05 AM 35.3250 -97.0492 90° East 362 417 11,700 1,597 Climbing Fort Worth Center
Sat 12:00:07 PM 35.3219 -96.8831 91° East 409 471 13,700 1,597 Climbing Fort Worth Center
Sat 12:01:09 PM 35.3206 -96.7400 91° East 419 482 15,000 1,306 Climbing Fort Worth Center
Sat 12:02:11 PM 35.3172 -96.5953 92° East 422 486 16,400 1,694 Climbing Fort Worth Center
Sat 12:03:13 PM 35.3142 -96.4467 91° East 435 501 18,500 1,790 Climbing Fort Worth Center
Sat 12:04:15 PM 35.3117 -96.2931 91° East 450 518 20,100 1,548 Climbing Fort Worth Center
Sat 12:05:17 PM 35.3075 -96.1047 91° East 460 529 21,700 1,392 Climbing Fort Worth Center
Sat 12:06:20 PM 35.3036 -95.9394 92° East 482 555 23,000 1,248 Climbing Fort Worth Center
Sat 12:07:22 PM 35.2983 -95.7750 92° East 492 566 24,300 1,161 Climbing Fort Worth Center
Sat 12:08:24 PM 35.2950 -95.6042 91° East 499 574 25,400 968 Climbing Fort Worth Center
Sat 12:09:26 PM 35.2903 -95.4314 92° East 504 580 26,300 919 Climbing Fort Worth Center
Sat 12:10:28 PM 35.2853 -95.2553 92° East 514 592 27,300 1,081 Climbing Fort Worth Center
Sat 12:11:17 PM 35.2800 -95.0767 92° East 517 595 28,300 1,081 Climbing Memphis Center
Sat 12:12:19 PM 35.2733 -94.8997 93° East 521 600 29,300 1,122 Climbing Memphis Center
Sat 12:13:20 PM 35.2686 -94.7250 92° East 520 598 30,600 1,122 Climbing Memphis Center
Sat 12:14:22 PM 35.2633 -94.5614 92° East 516 594 31,600 919 Climbing Memphis Center
Sat 12:15:24 PM 35.2561 -94.3900 93° East 511 588 32,500 677 Climbing Memphis Center
Sat 12:16:26 PM 35.2489 -94.2083 93° East 510 587 33,000 242 Climbing Memphis Center
Sat 12:17:28 PM 35.2422 -94.0364 93° East 508 585 33,000  Level Memphis Center
Sat 12:18:30 PM 35.2353 -93.8306 92° East 508 585 33,000  Level Memphis Center
Sat 12:19:32 PM 35.2278 -93.6714 93° East 507 583 33,000  Level Memphis Center
Sat 12:20:33 PM 35.2208 -93.5017 93° East 507 583 33,000  Level Memphis Center
Sat 12:21:35 PM 35.2131 -93.3239 93° East 507 583 33,000  Level Memphis Center
Sat 12:22:37 PM 35.2042 -93.1517 94° East 507 583 33,000  Level Memphis Center
Sat 12:23:39 PM 35.1967 -92.9792 93° East 507 583 33,000  Level Memphis Center
Sat 12:24:41 PM 35.1864 -92.7708 93° East 508 585 33,000  Level Memphis Center
Sat 12:25:43 PM 35.1786 -92.6164 93° East 508 585 33,000  Level Memphis Center
Sat 12:26:45 PM 35.1681 -92.4108 94° East 508 585 33,000  Level Memphis Center
Sat 12:27:47 PM 35.1589 -92.2389 94° East 508 585 33,000  Level Memphis Center
Sat 12:28:48 PM 35.1492 -92.0664 94° East 509 586 33,000  Level Memphis Center
Sat 12:29:50 PM 35.1394 -91.8931 94° East 510 587 33,000  Level Memphis Center
Sat 12:30:52 PM 35.1294 -91.7194 94° East 511 588 33,000  Level Memphis Center
Sat 12:31:54 PM 35.1194 -91.5467 94° East 511 588 33,000  Level Memphis Center
Sat 12:32:56 PM 35.1078 -91.3631 94° East 512 589 33,000  Level Memphis Center
Sat 12:33:58 PM 35.0983 -91.1903 94° East 512 589 33,000  Level Memphis Center
Sat 12:35:00 PM 35.0850 -90.9822 94° East 512 589 33,000  Level Memphis Center
Sat 12:36:02 PM 35.0736 -90.8078 95° East 514 592 33,000  Level Memphis Center
Sat 12:37:04 PM 35.0617 -90.6328 95° East 514 592 33,000  Level Memphis Center
Sat 12:38:05 PM 35.0489 -90.4567 95° East 520 598 33,000  Level Memphis Center
Sat 12:39:07 PM 35.0367 -90.2789 95° East 521 600 33,000  Level Memphis Center
Sat 12:40:09 PM 35.0250 -90.1028 95° East 521 600 33,000  Level Memphis Center
Sat 12:41:11 PM 35.0089 -89.9261 96° East 521 600 33,000  Level Memphis Center
Sat 12:42:13 PM 34.9814 -89.7436 100° East 531 611 33,000  Level Memphis Center
Sat 12:43:15 PM 34.9539 -89.5619 100° East 531 611 33,000  Level Memphis Center
Sat 12:44:17 PM 34.9217 -89.3489 100° East 531 611 33,000  Level Memphis Center
Sat 12:45:19 PM 34.8950 -89.1744 101° East 529 609 33,000  Level Memphis Center
Sat 12:46:21 PM 34.8678 -88.9994 101° East 527 606 33,000  Level Memphis Center
Sat 12:47:23 PM 34.8417 -88.8239 100° East 527 606 33,000  Level Memphis Center
Sat 12:48:25 PM 34.8144 -88.6489 101° East 527 606 33,000  Level Memphis Center
Sat 12:49:26 PM 34.7836 -88.4539 101° East 527 606 33,000  Level Memphis Center
Sat 12:50:28 PM 34.7558 -88.2797 101° East 527 606 33,000  Level Memphis Center
Sat 12:51:30 PM 34.7289 -88.1047 101° East 527 606 33,000  Level Memphis Center
Sat 12:52:32 PM 34.7000 -87.9294 101° East 527 606 33,000  Level Memphis Center
Sat 12:53:34 PM 34.6719 -87.7544 101° East 527 606 33,000  Level Memphis Center
Sat 12:54:36 PM 34.6425 -87.5769 101° East 527 606 33,000  Level Memphis Center
Sat 12:55:38 PM 34.6122 -87.3983 102° East 528 608 33,000  Level Memphis Center
Sat 12:56:40 PM 34.5778 -87.2181 103° East 528 608 33,000  Level Memphis Center
Sat 12:57:42 PM 34.5389 -87.0133 103° East 528 608 33,000  Level Memphis Center
Sat 12:58:44 PM 34.5053 -86.8403 103° East 528 608 33,000 -439 Level Memphis Center
Sat 12:59:45 PM 34.4722 -86.6664 103° East 528 608 32,100 -927 Descending Memphis Center
Sat 01:00:47 PM 34.4389 -86.4939 103° East 528 608 31,100 -968 Descending Memphis Center
Sat 01:01:49 PM 34.4042 -86.3225 104° East 528 608 30,100 -1,062 Descending Memphis Center
Sat 01:02:40 PM 34.3708 -86.1528 103° East 525 604 29,100 -1,081 Descending Atlanta Center
Sat 01:03:40 PM 34.3319 -85.9833 105° East 525 604 28,100 -1,000 Descending Atlanta Center
Sat 01:04:40 PM 34.2656 -85.8283 117° Southeast 520 598 27,100 -1,450 Descending Atlanta Center
Sat 01:05:40 PM 34.2050 -85.6814 116° Southeast 500 575 25,200 -1,950 Descending Atlanta Center
Sat 01:06:40 PM 34.1483 -85.5422 116° Southeast 477 549 23,200 -1,900 Descending Atlanta Center
Sat 01:07:40 PM 34.0681 -85.4506 137° Southeast 414 476 21,400 -2,400 Descending Atlanta Center
Sat 01:08:40 PM 33.9936 -85.3692 138° Southeast 390 449 18,400 -3,150 Descending Atlanta Center
Sat 01:09:40 PM 33.9783 -85.2461 98° East 353 406 15,100 -2,950 Descending Atlanta Center
Sat 01:10:40 PM 33.9689 -85.1383 96° East 353 406 12,500 -1,900 Descending Atlanta Center
Sat 01:11:40 PM 33.9322 -85.0378 114° Southeast 339 390 11,300 -1,450 Descending Atlanta Center
Sat 01:12:40 PM 33.8911 -84.9447 118° Southeast 322 371 9,600 -1,150 Descending Atlanta Center
Sat 01:13:40 PM 33.8183 -84.9039 155° Southeast 287 330 9,000 -1,100 Descending Atlanta Center
Sat 01:14:40 PM 33.7603 -84.8358 136° Southeast 283 326 7,400 -1,500 Descending Atlanta Center
Sat 01:15:40 PM 33.6958 -84.7953 152° Southeast 272 313 6,000 -700 Descending Atlanta Center
Sat 01:16:40 PM 33.6586 -84.7525 136° Southeast 219 252 6,000 -400 Level Atlanta Center
Sat 01:17:40 PM 33.6506 -84.6903 99° East 183 211 5,200 -1,049 Descending Atlanta Center
Sat 01:19:03 PM 33.6500 -84.5833 90° East 200 230 3,500 -1,139 Descending Atlanta TRACON
Sat 01:19:57 PM 33.6500 -84.5333 90° East 197 227 2,600 -947 Descending Atlanta TRACON
Sat 01:20:57 PM 33.6500 -84.4833 90° East 153 176 1,700 -900 Descending Atlanta TRACON
Sat 01:22:00 PM 33.6367 -84.4279 North  Level Estimated
Sat 01:29:00 PM 33.6367 -84.4279 North  Level Estimated
Sat 01:30:00 PM 33.6367 -84.4279 North  Level Estimated
Sat 01:31:00 PM 33.6367 -84.4279 North  Level Estimated

Login

Don't have an account? Register now (free) for customized features, flight alerts, and more!